createdAt,value
2019-01-02T00:01:02.365Z,19.70
2019-01-02T00:06:19.233Z,19.60
2019-01-02T00:09:13.112Z,19.50
2019-01-02T00:11:55.970Z,19.40
2019-01-02T00:14:39.025Z,19.30
2019-01-02T00:17:21.394Z,19.30
2019-01-02T00:20:07.787Z,19.30
2019-01-02T00:22:50.499Z,19.20
2019-01-02T00:25:33.388Z,19.20
2019-01-02T00:34:00.885Z,19.00
2019-01-02T00:36:43.981Z,19.00
2019-01-02T00:39:27.176Z,18.90
2019-01-02T00:42:10.214Z,18.90
2019-01-02T00:44:53.658Z,18.90
2019-01-02T00:47:36.696Z,18.80
2019-01-02T00:53:01.315Z,18.70
2019-01-02T00:55:44.001Z,18.60
2019-01-02T00:58:26.516Z,18.60
2019-01-02T01:01:10.333Z,18.60
2019-01-02T01:09:22.638Z,18.60
2019-01-02T01:12:07.822Z,18.50
2019-01-02T01:15:10.477Z,18.40
2019-01-02T01:17:55.806Z,18.30
2019-01-02T01:20:38.766Z,18.30
2019-01-02T01:23:22.021Z,18.30
2019-01-02T01:26:05.342Z,18.20
2019-01-02T01:28:49.364Z,18.20
2019-01-02T01:31:33.067Z,18.20
2019-01-02T01:34:17.060Z,18.10
2019-01-02T01:37:01.786Z,18.10
2019-01-02T01:39:44.225Z,18.00
2019-01-02T01:42:26.932Z,18.10
2019-01-02T01:48:38.165Z,18.10
2019-01-02T01:51:19.897Z,18.10
2019-01-02T01:54:47.715Z,18.10
2019-01-02T01:56:55.901Z,18.10
2019-01-02T01:59:41.178Z,18.00
2019-01-02T02:02:50.119Z,18.10
2019-01-02T02:05:18.560Z,18.00
2019-01-02T02:11:09.368Z,17.90
2019-01-02T02:13:53.193Z,17.90
2019-01-02T02:16:35.802Z,17.90
2019-01-02T02:23:06.836Z,17.90
2019-01-02T02:29:03.280Z,17.80
2019-01-02T02:31:46.969Z,17.70
2019-01-02T02:34:30.756Z,17.70
2019-01-02T02:37:13.877Z,17.60
2019-01-02T02:39:59.125Z,17.50
2019-01-02T02:45:48.329Z,17.50
2019-01-02T03:09:41.744Z,17.10
2019-01-02T03:12:25.378Z,17.10
2019-01-02T03:15:08.370Z,17.10
2019-01-02T03:20:43.177Z,17.20
2019-01-02T03:23:27.421Z,17.20
2019-01-02T03:26:10.698Z,17.20
2019-01-02T03:28:53.714Z,17.20
2019-01-02T03:31:38.041Z,17.20
2019-01-02T03:34:21.452Z,17.10
2019-01-02T03:37:06.087Z,17.00
2019-01-02T03:39:49.661Z,17.00
2019-01-02T03:42:35.286Z,17.00
2019-01-02T03:45:18.847Z,16.90
2019-01-02T03:48:02.850Z,16.90
2019-01-02T03:50:48.376Z,16.90
2019-01-02T03:56:18.907Z,16.70
2019-01-02T03:59:04.419Z,16.70
2019-01-02T04:01:46.951Z,16.60
2019-01-02T04:04:33.025Z,16.60
2019-01-02T04:07:18.248Z,16.60
2019-01-02T04:10:03.490Z,16.50
2019-01-02T04:12:47.753Z,16.50
2019-01-02T04:15:32.179Z,16.50
2019-01-02T04:18:16.295Z,16.50
2019-01-02T04:21:00.452Z,16.50
2019-01-02T04:23:43.676Z,16.50
2019-01-02T04:26:26.842Z,16.50
2019-01-02T04:29:11.079Z,16.50
2019-01-02T04:31:54.215Z,16.40
2019-01-02T04:34:36.567Z,16.40
2019-01-02T04:37:19.666Z,16.40
2019-01-02T04:40:02.194Z,16.30
2019-01-02T04:42:46.616Z,16.40
2019-01-02T04:45:29.729Z,16.30
2019-01-02T04:48:12.892Z,16.30
2019-01-02T04:50:55.404Z,16.30
2019-01-02T04:53:39.038Z,16.30
2019-01-02T04:56:21.226Z,16.20
2019-01-02T04:59:04.698Z,16.10
2019-01-02T05:01:47.415Z,16.10
2019-01-02T05:04:30.392Z,16.20
2019-01-02T05:07:13.173Z,16.20
2019-01-02T05:09:55.921Z,16.20
2019-01-02T05:12:41.141Z,16.20
2019-01-02T05:15:24.259Z,16.20
2019-01-02T05:20:47.437Z,16.20
2019-01-02T05:23:32.275Z,16.10
2019-01-02T05:26:15.262Z,16.10
2019-01-02T05:28:58.019Z,16.00
2019-01-02T05:31:40.396Z,16.00
2019-01-02T05:34:23.280Z,16.10
2019-01-02T05:37:05.616Z,16.00
2019-01-02T05:39:48.988Z,16.00
2019-01-02T05:42:34.665Z,16.00
2019-01-02T05:45:18.348Z,16.00
2019-01-02T05:48:00.766Z,16.00
2019-01-02T05:50:43.650Z,16.00
2019-01-02T05:53:26.120Z,16.00
2019-01-02T05:56:09.355Z,16.00
2019-01-02T05:58:52.194Z,16.00
2019-01-02T06:01:34.771Z,16.10
2019-01-02T06:04:17.433Z,16.10
2019-01-02T06:07:00.028Z,16.10
2019-01-02T06:09:42.502Z,16.10
2019-01-02T06:18:13.801Z,16.10
2019-01-02T06:20:56.572Z,16.10
2019-01-02T06:23:39.064Z,16.10
2019-01-02T06:26:22.021Z,16.10
2019-01-02T06:29:04.337Z,16.10
2019-01-02T06:31:47.223Z,16.10
2019-01-02T06:34:29.972Z,16.10
2019-01-02T06:37:12.714Z,16.10
2019-01-02T06:39:55.432Z,16.10
2019-01-02T06:42:38.463Z,16.10
2019-01-02T06:45:21.478Z,16.10
2019-01-02T06:48:04.269Z,16.10
2019-01-02T06:50:47.011Z,16.10
2019-01-02T06:53:30.154Z,16.00
2019-01-02T06:56:12.766Z,16.10
2019-01-02T06:58:55.504Z,16.00
2019-01-02T07:01:38.112Z,16.00
2019-01-02T07:04:20.778Z,15.90
2019-01-02T07:07:04.014Z,15.80
2019-01-02T07:09:47.209Z,15.70
2019-01-02T07:12:29.833Z,15.70
2019-01-02T07:15:12.650Z,15.70
2019-01-02T07:17:55.475Z,15.60
2019-01-02T07:20:37.971Z,15.60
2019-01-02T07:23:20.762Z,15.60
2019-01-02T07:26:06.685Z,15.50
2019-01-02T07:28:49.334Z,15.50
2019-01-02T07:31:32.131Z,15.50
2019-01-02T07:37:23.590Z,15.50
2019-01-02T07:40:06.605Z,15.50
2019-01-02T07:42:49.403Z,15.50
2019-01-02T07:45:32.698Z,15.50
2019-01-02T07:48:15.192Z,15.50
2019-01-02T07:51:00.357Z,15.50
2019-01-02T07:53:41.635Z,15.60
2019-01-02T07:56:24.383Z,15.60
2019-01-02T07:59:07.173Z,15.60
2019-01-02T08:01:49.898Z,15.60
2019-01-02T08:04:32.417Z,15.60
2019-01-02T08:07:14.936Z,15.60
2019-01-02T08:09:57.626Z,15.70
2019-01-02T08:12:40.499Z,15.60
2019-01-02T08:18:22.202Z,15.60
2019-01-02T08:21:05.102Z,15.50
2019-01-02T08:23:47.863Z,15.50
2019-01-02T08:26:30.718Z,15.50
2019-01-02T08:29:13.385Z,15.50
2019-01-02T08:31:56.192Z,15.50
2019-01-02T08:34:38.977Z,15.50
2019-01-02T08:37:21.937Z,15.60
2019-01-02T08:40:04.528Z,15.60
2019-01-02T08:42:47.266Z,15.50
2019-01-02T08:45:29.907Z,15.50
2019-01-02T08:48:12.565Z,15.50
2019-01-02T08:50:55.489Z,15.40
2019-01-02T08:53:38.044Z,15.40
2019-01-02T08:56:21.395Z,15.30
2019-01-02T08:59:04.297Z,15.20
2019-01-02T09:01:47.022Z,15.20
2019-01-02T09:04:29.849Z,15.20
2019-01-02T09:07:12.411Z,15.10
2019-01-02T09:09:55.064Z,15.10
2019-01-02T09:12:38.990Z,15.10
2019-01-02T09:15:21.838Z,15.10
2019-01-02T09:18:04.339Z,15.00
2019-01-02T09:20:46.919Z,15.00
2019-01-02T09:23:28.693Z,15.00
2019-01-02T09:26:11.735Z,15.00
2019-01-02T09:28:54.836Z,15.00
2019-01-02T09:31:37.558Z,15.00
2019-01-02T09:34:20.702Z,15.10
2019-01-02T09:37:03.777Z,15.10
2019-01-02T09:39:47.392Z,15.00
2019-01-02T09:42:29.973Z,15.00
2019-01-02T09:45:12.669Z,15.00
2019-01-02T09:47:55.351Z,15.00
2019-01-02T09:50:38.490Z,15.00
2019-01-02T09:53:21.163Z,14.90
2019-01-02T09:56:03.915Z,14.90
2019-01-02T09:59:13.355Z,14.90
2019-01-02T10:01:56.534Z,15.00
2019-01-02T10:04:39.083Z,15.00
2019-01-02T10:07:21.958Z,15.00
2019-01-02T10:10:05.036Z,15.10
2019-01-02T10:12:47.764Z,15.00
2019-01-02T10:15:30.560Z,15.00
2019-01-02T10:18:13.138Z,15.00
2019-01-02T10:20:55.850Z,15.00
2019-01-02T10:23:38.654Z,15.00
2019-01-02T10:26:21.356Z,15.00
2019-01-02T10:29:04.227Z,15.00
2019-01-02T10:31:47.011Z,15.00
2019-01-02T10:39:48.166Z,15.10
2019-01-02T10:42:31.031Z,15.00
2019-01-02T10:45:13.687Z,14.90
2019-01-02T10:47:56.655Z,14.90
2019-01-02T10:50:39.324Z,15.00
2019-01-02T10:53:22.046Z,15.00
2019-01-02T10:56:05.326Z,14.90
2019-01-02T10:58:48.074Z,15.00
2019-01-02T11:01:31.021Z,14.90
2019-01-02T11:04:13.384Z,14.90
2019-01-02T11:06:55.990Z,14.80
2019-01-02T11:09:38.498Z,14.90
2019-01-02T11:12:21.143Z,14.90
2019-01-02T11:15:04.109Z,14.90
2019-01-02T11:17:46.858Z,14.90
2019-01-02T11:20:29.452Z,14.90
2019-01-02T11:23:12.072Z,14.90
2019-01-02T11:25:54.785Z,14.80
2019-01-02T11:28:37.693Z,14.80
2019-01-02T11:34:02.745Z,14.70
2019-01-02T11:36:45.150Z,14.70
2019-01-02T11:39:27.975Z,14.70
2019-01-02T11:42:10.495Z,14.70
2019-01-02T11:44:53.374Z,14.70
2019-01-02T11:47:35.723Z,14.70
2019-01-02T11:50:17.951Z,14.60
2019-01-02T11:53:01.231Z,14.60
2019-01-02T11:55:43.812Z,14.60
2019-01-02T12:01:09.982Z,14.60
2019-01-02T12:03:52.617Z,14.70
2019-01-02T12:06:35.205Z,14.70
2019-01-02T12:09:18.052Z,14.70
2019-01-02T12:12:01.830Z,14.70
2019-01-02T12:14:44.193Z,14.70
2019-01-02T12:17:26.711Z,14.70
2019-01-02T12:20:09.319Z,14.70
2019-01-02T12:22:51.162Z,14.60
2019-01-02T12:25:34.214Z,14.60
2019-01-02T12:28:17.439Z,14.50
2019-01-02T12:31:00.061Z,14.50
2019-01-02T12:33:43.655Z,14.50
2019-01-02T12:36:26.660Z,14.50
2019-01-02T12:39:09.615Z,14.60
2019-01-02T12:42:07.410Z,14.60
2019-01-02T12:44:50.110Z,14.60
2019-01-02T12:47:33.454Z,14.50
2019-01-02T12:50:17.449Z,14.50
2019-01-02T12:52:59.855Z,14.60
2019-01-02T12:55:42.695Z,14.70
2019-01-02T13:01:15.364Z,14.90
2019-01-02T13:06:47.966Z,15.10
2019-01-02T13:09:31.414Z,15.20
2019-01-02T13:12:14.768Z,15.30
2019-01-02T13:14:57.462Z,15.50
2019-01-02T13:17:40.963Z,15.60
2019-01-02T13:20:36.395Z,15.80
2019-01-02T13:26:47.703Z,16.10
2019-01-02T13:29:30.607Z,16.30
2019-01-02T13:32:16.634Z,16.40
2019-01-02T13:35:00.453Z,16.50
2019-01-02T13:37:44.875Z,16.60
2019-01-02T13:40:28.501Z,16.80
2019-01-02T13:43:12.049Z,16.90
2019-01-02T13:45:55.565Z,17.00
2019-01-02T13:48:38.278Z,17.20
2019-01-02T13:51:21.294Z,17.30
2019-01-02T13:54:04.421Z,17.60
2019-01-02T13:56:46.999Z,18.10
2019-01-02T13:59:30.465Z,18.20
2019-01-02T14:02:13.861Z,18.00
2019-01-02T14:04:58.424Z,17.80
2019-01-02T14:07:41.813Z,17.90
2019-01-02T14:10:25.336Z,18.00
2019-01-02T14:13:08.619Z,17.90
2019-01-02T14:15:52.365Z,17.80
2019-01-02T14:18:36.691Z,18.00
2019-01-02T14:21:20.097Z,17.90
2019-01-02T14:24:02.710Z,18.20
2019-01-02T14:26:45.491Z,18.40
2019-01-02T14:29:28.750Z,18.30
2019-01-02T14:32:11.654Z,18.30
2019-01-02T14:34:54.310Z,18.50
2019-01-02T14:37:38.418Z,18.60
2019-01-02T14:40:21.163Z,18.70
2019-01-02T14:43:04.778Z,18.90
2019-01-02T14:45:48.215Z,19.20
2019-01-02T14:48:33.094Z,19.40
2019-01-02T14:57:28.394Z,19.60
2019-01-02T15:00:11.102Z,20.00
2019-01-02T15:05:37.471Z,19.20
2019-01-02T15:08:36.925Z,19.00
2019-01-02T15:11:11.995Z,19.00
2019-01-02T15:13:57.216Z,19.00
2019-01-02T15:16:44.540Z,19.30
2019-01-02T15:22:08.275Z,19.30
2019-01-02T15:24:54.899Z,19.50
2019-01-02T15:27:38.015Z,20.30
2019-01-02T15:30:21.994Z,19.80
2019-01-02T15:33:06.153Z,20.40
2019-01-02T15:35:49.882Z,20.60
2019-01-02T15:38:32.801Z,20.10
2019-01-02T15:41:16.248Z,20.10
2019-01-02T15:44:12.106Z,20.40
2019-01-02T15:46:58.199Z,20.30
2019-01-02T15:49:59.723Z,20.80
2019-01-02T15:52:43.152Z,20.90
2019-01-02T15:55:43.315Z,21.20
2019-01-02T15:58:16.451Z,21.40
2019-01-02T16:03:57.018Z,22.00
2019-01-02T16:06:49.192Z,22.00
2019-01-02T16:09:17.735Z,21.60
2019-01-02T16:12:09.114Z,22.10
2019-01-02T16:14:53.849Z,21.90
2019-01-02T16:20:59.101Z,22.10
2019-01-02T16:23:42.751Z,22.50
2019-01-02T16:26:29.862Z,23.00
2019-01-02T16:29:15.322Z,23.40
2019-01-02T16:31:58.407Z,22.70
2019-01-02T16:34:43.042Z,22.60
2019-01-02T16:37:17.203Z,22.90
2019-01-02T16:40:10.560Z,23.10
2019-01-02T16:42:53.852Z,23.10
2019-01-02T16:45:38.853Z,23.10
2019-01-02T16:48:22.803Z,22.70
2019-01-02T16:51:05.943Z,22.50
2019-01-02T16:53:49.281Z,22.50
2019-01-02T16:56:41.094Z,23.10
2019-01-02T16:59:24.427Z,23.80
2019-01-02T17:02:07.460Z,23.40
2019-01-02T17:04:50.647Z,23.40
2019-01-02T17:07:35.592Z,23.30
2019-01-02T17:10:25.123Z,23.70
2019-01-02T17:15:53.059Z,23.30
2019-01-02T17:18:36.849Z,23.80
2019-01-02T17:24:02.429Z,24.30
2019-01-02T17:26:47.356Z,24.30
2019-01-02T17:29:30.585Z,24.80
2019-01-02T17:32:16.242Z,24.30
2019-01-02T17:34:59.071Z,24.30
2019-01-02T17:37:58.041Z,24.10
2019-01-02T17:40:41.555Z,24.30
2019-01-02T17:43:37.062Z,24.80
2019-01-02T17:46:37.807Z,25.30
2019-01-02T17:49:11.770Z,25.30
2019-01-02T17:51:55.789Z,24.80
2019-01-02T17:54:44.635Z,24.00
2019-01-02T17:57:33.830Z,24.10
2019-01-02T18:00:20.306Z,24.30
2019-01-02T18:03:44.558Z,24.40
2019-01-02T18:09:47.892Z,24.90
2019-01-02T18:15:49.304Z,24.80
2019-01-02T18:18:31.442Z,24.70
2019-01-02T18:21:15.300Z,24.60
2019-01-02T18:27:20.055Z,24.40
2019-01-02T18:39:16.925Z,24.80
2019-01-02T18:42:14.366Z,24.90
2019-01-02T18:45:18.833Z,25.10
2019-01-02T18:48:10.577Z,25.10
2019-01-02T18:51:17.689Z,25.40
2019-01-02T18:57:31.335Z,24.40
2019-01-02T19:03:20.815Z,25.00
2019-01-02T19:21:28.300Z,25.20
2019-01-02T19:27:22.989Z,25.50
2019-01-02T19:29:55.747Z,25.60
2019-01-02T19:32:40.539Z,24.50
2019-01-02T19:38:30.842Z,24.90
2019-01-02T19:50:17.406Z,25.20
2019-01-02T19:53:00.709Z,24.80
2019-01-02T19:55:43.621Z,25.80
2019-01-02T19:58:27.978Z,26.10
2019-01-02T20:03:52.914Z,24.10
2019-01-02T20:06:43.524Z,23.40
2019-01-02T20:09:25.189Z,23.80
2019-01-02T20:12:08.209Z,24.20
2019-01-02T20:14:51.029Z,24.10
2019-01-02T20:17:38.878Z,24.30
2019-01-02T20:20:18.638Z,24.90
2019-01-02T20:23:01.936Z,25.20
2019-01-02T20:25:45.039Z,25.50
2019-01-02T20:28:27.823Z,25.10
2019-01-02T20:31:11.471Z,24.40
2019-01-02T20:33:54.326Z,24.10
2019-01-02T20:39:37.584Z,24.60
2019-01-02T20:42:20.448Z,24.20
2019-01-02T20:45:02.964Z,25.00
2019-01-02T20:47:48.021Z,25.30
2019-01-02T20:50:33.340Z,25.60
2019-01-02T20:53:16.629Z,24.50
2019-01-02T20:55:59.628Z,24.50
2019-01-02T20:58:42.915Z,24.40
2019-01-02T21:01:26.964Z,24.40
2019-01-02T21:07:18.019Z,25.30
2019-01-02T21:10:02.530Z,25.40
2019-01-02T21:12:45.373Z,24.90
2019-01-02T21:18:30.287Z,25.10
2019-01-02T21:21:13.070Z,24.60
2019-01-02T21:23:57.041Z,24.10
2019-01-02T21:26:40.387Z,23.90
2019-01-02T21:29:24.880Z,23.80
2019-01-02T21:32:07.618Z,23.60
2019-01-02T21:34:51.135Z,23.30
2019-01-02T21:37:36.196Z,23.10
2019-01-02T21:40:21.194Z,23.00
2019-01-02T21:43:05.850Z,23.00
2019-01-02T21:48:31.794Z,22.90
2019-01-02T21:51:15.095Z,22.70
2019-01-02T21:53:58.674Z,22.70
2019-01-02T21:59:20.855Z,22.60
2019-01-02T22:02:04.271Z,22.50
2019-01-02T22:04:51.544Z,22.40
2019-01-02T22:07:36.675Z,22.40
2019-01-02T22:10:20.007Z,22.50
2019-01-02T22:13:11.080Z,22.40
2019-01-02T22:15:44.905Z,22.40
2019-01-02T22:18:36.910Z,22.40
2019-01-02T22:21:20.719Z,22.30
2019-01-02T22:24:03.670Z,22.30
2019-01-02T22:26:46.827Z,22.30
2019-01-02T22:32:11.432Z,22.10
2019-01-02T22:34:55.310Z,22.10
2019-01-02T22:40:47.053Z,22.00
2019-01-02T22:43:29.852Z,22.00
2019-01-02T22:48:52.748Z,21.90
2019-01-02T22:51:35.068Z,21.80
2019-01-02T22:54:18.558Z,21.90
2019-01-02T22:57:01.730Z,21.80
2019-01-02T22:59:44.739Z,21.70
2019-01-02T23:02:46.135Z,21.60
2019-01-02T23:05:47.053Z,21.60
2019-01-02T23:08:48.039Z,21.60
2019-01-02T23:14:58.455Z,21.50
2019-01-02T23:17:59.719Z,21.50
2019-01-02T23:21:00.672Z,21.40
2019-01-02T23:24:01.926Z,21.50
2019-01-02T23:27:03.049Z,21.40
2019-01-02T23:30:03.864Z,21.30
2019-01-02T23:33:04.893Z,21.30
2019-01-02T23:36:05.856Z,21.20
2019-01-02T23:42:30.737Z,21.00
2019-01-02T23:45:31.748Z,21.00
2019-01-02T23:51:45.694Z,20.90
2019-01-02T23:54:46.087Z,20.80
2019-01-02T23:57:52.840Z,20.70
